sensor_id;sensor_type;location;lat;lon;timestamp;temperature;humidity
8717;DHT22;4395;48.554;8.820;2022-12-20T00:01:43;4.50;99.90
8717;DHT22;4395;48.554;8.820;2022-12-20T00:03:48;4.40;99.90
8717;DHT22;4395;48.554;8.820;2022-12-20T00:05:52;4.50;99.90
8717;DHT22;4395;48.554;8.820;2022-12-20T00:07:55;4.50;99.90
8717;DHT22;4395;48.554;8.820;2022-12-20T00:09:59;4.50;99.90
8717;DHT22;4395;48.554;8.820;2022-12-20T00:12:02;4.50;99.90
8717;DHT22;4395;48.554;8.820;2022-12-20T00:14:07;4.40;99.90
8717;DHT22;4395;48.554;8.820;2022-12-20T00:16:12;4.40;99.90
8717;DHT22;4395;48.554;8.820;2022-12-20T00:18:16;4.50;99.90
8717;DHT22;4395;48.554;8.820;2022-12-20T00:20:20;4.50;99.90
8717;DHT22;4395;48.554;8.820;2022-12-20T00:22:23;4.50;99.90
8717;DHT22;4395;48.554;8.820;2022-12-20T00:24:26;4.50;99.90
8717;DHT22;4395;48.554;8.820;2022-12-20T00:26:31;4.50;99.90
8717;DHT22;4395;48.554;8.820;2022-12-20T00:28:35;4.50;99.90
8717;DHT22;4395;48.554;8.820;2022-12-20T00:30:41;4.50;99.90
8717;DHT22;4395;48.554;8.820;2022-12-20T00:32:45;4.40;99.90
8717;DHT22;4395;48.554;8.820;2022-12-20T00:34:48;4.40;99.90
8717;DHT22;4395;48.554;8.820;2022-12-20T00:36:51;4.50;99.90
8717;DHT22;4395;48.554;8.820;2022-12-20T00:38:55;4.40;99.90
8717;DHT22;4395;48.554;8.820;2022-12-20T00:41:00;4.40;99.90
8717;DHT22;4395;48.554;8.820;2022-12-20T00:43:04;4.40;99.90
8717;DHT22;4395;48.554;8.820;2022-12-20T00:45:08;4.40;99.90
8717;DHT22;4395;48.554;8.820;2022-12-20T00:47:13;4.40;99.90
8717;DHT22;4395;48.554;8.820;2022-12-20T00:49:16;4.30;99.90
8717;DHT22;4395;48.554;8.820;2022-12-20T00:51:23;4.30;99.90
8717;DHT22;4395;48.554;8.820;2022-12-20T00:53:28;4.30;99.90
8717;DHT22;4395;48.554;8.820;2022-12-20T00:55:32;4.30;99.90
8717;DHT22;4395;48.554;8.820;2022-12-20T00:57:35;4.40;99.90
8717;DHT22;4395;48.554;8.820;2022-12-20T00:59:38;4.30;99.90
8717;DHT22;4395;48.554;8.820;2022-12-20T01:01:42;4.30;99.90
8717;DHT22;4395;48.554;8.820;2022-12-20T01:03:47;4.20;99.90
8717;DHT22;4395;48.554;8.820;2022-12-20T01:05:52;4.20;99.90
8717;DHT22;4395;48.554;8.820;2022-12-20T01:07:56;4.30;99.90
8717;DHT22;4395;48.554;8.820;2022-12-20T01:09:59;4.40;99.90
8717;DHT22;4395;48.554;8.820;2022-12-20T01:12:03;4.30;99.90
8717;DHT22;4395;48.554;8.820;2022-12-20T01:14:09;4.30;99.90
8717;DHT22;4395;48.554;8.820;2022-12-20T01:16:16;4.30;99.90
8717;DHT22;4395;48.554;8.820;2022-12-20T01:18:21;4.30;99.90
8717;DHT22;4395;48.554;8.820;2022-12-20T01:20:25;4.40;99.90
8717;DHT22;4395;48.554;8.820;2022-12-20T01:22:29;4.30;99.90
8717;DHT22;4395;48.554;8.820;2022-12-20T01:24:32;4.40;99.90
8717;DHT22;4395;48.554;8.820;2022-12-20T01:26:35;4.50;99.90
8717;DHT22;4395;48.554;8.820;2022-12-20T01:28:40;4.50;99.90
8717;DHT22;4395;48.554;8.820;2022-12-20T01:30:44;4.50;99.90
8717;DHT22;4395;48.554;8.820;2022-12-20T01:32:47;4.50;99.90
8717;DHT22;4395;48.554;8.820;2022-12-20T01:34:52;4.40;99.90
8717;DHT22;4395;48.554;8.820;2022-12-20T01:36:57;4.40;99.90
8717;DHT22;4395;48.554;8.820;2022-12-20T01:39:03;4.40;99.90
8717;DHT22;4395;48.554;8.820;2022-12-20T01:41:10;4.50;99.90
8717;DHT22;4395;48.554;8.820;2022-12-20T01:43:17;4.50;99.90
8717;DHT22;4395;48.554;8.820;2022-12-20T01:45:25;4.60;99.90
8717;DHT22;4395;48.554;8.820;2022-12-20T01:47:33;4.60;99.90
8717;DHT22;4395;48.554;8.820;2022-12-20T01:49:42;4.70;99.90
8717;DHT22;4395;48.554;8.820;2022-12-20T01:51:51;4.70;99.90
8717;DHT22;4395;48.554;8.820;2022-12-20T01:54:01;4.70;99.90
8717;DHT22;4395;48.554;8.820;2022-12-20T01:56:09;4.70;99.90
8717;DHT22;4395;48.554;8.820;2022-12-20T01:58:14;4.60;99.90
8717;DHT22;4395;48.554;8.820;2022-12-20T02:00:19;4.70;99.90
8717;DHT22;4395;48.554;8.820;2022-12-20T02:02:23;4.60;99.90
8717;DHT22;4395;48.554;8.820;2022-12-20T02:04:27;4.50;99.90
8717;DHT22;4395;48.554;8.820;2022-12-20T02:06:30;4.50;99.90
8717;DHT22;4395;48.554;8.820;2022-12-20T02:08:34;4.50;99.90
8717;DHT22;4395;48.554;8.820;2022-12-20T02:10:47;4.50;99.90
8717;DHT22;4395;48.554;8.820;2022-12-20T02:13:05;4.40;99.90
8717;DHT22;4395;48.554;8.820;2022-12-20T02:15:29;4.40;99.90
8717;DHT22;4395;48.554;8.820;2022-12-20T02:17:44;4.40;99.90
8717;DHT22;4395;48.554;8.820;2022-12-20T02:20:21;4.40;99.90
8717;DHT22;4395;48.554;8.820;2022-12-20T02:22:56;4.40;99.90
8717;DHT22;4395;48.554;8.820;2022-12-20T02:25:43;4.40;99.90
8717;DHT22;4395;48.554;8.820;2022-12-20T02:27:55;4.40;99.90
8717;DHT22;4395;48.554;8.820;2022-12-20T02:30:09;4.30;99.90
8717;DHT22;4395;48.554;8.820;2022-12-20T02:32:17;4.40;99.90
8717;DHT22;4395;48.554;8.820;2022-12-20T02:34:24;4.30;99.90
8717;DHT22;4395;48.554;8.820;2022-12-20T02:36:28;4.30;99.90
8717;DHT22;4395;48.554;8.820;2022-12-20T02:38:33;4.40;99.90
8717;DHT22;4395;48.554;8.820;2022-12-20T02:40:39;4.40;99.90
8717;DHT22;4395;48.554;8.820;2022-12-20T02:42:45;4.40;99.90
8717;DHT22;4395;48.554;8.820;2022-12-20T02:44:54;4.30;99.90
8717;DHT22;4395;48.554;8.820;2022-12-20T02:47:21;4.40;99.90
8717;DHT22;4395;48.554;8.820;2022-12-20T02:49:30;4.30;99.90
8717;DHT22;4395;48.554;8.820;2022-12-20T02:51:37;4.40;99.90
8717;DHT22;4395;48.554;8.820;2022-12-20T02:53:42;4.40;99.90
8717;DHT22;4395;48.554;8.820;2022-12-20T02:55:51;4.40;99.90
8717;DHT22;4395;48.554;8.820;2022-12-20T02:57:59;4.50;99.90
8717;DHT22;4395;48.554;8.820;2022-12-20T03:00:08;4.50;99.90
8717;DHT22;4395;48.554;8.820;2022-12-20T03:02:13;4.40;99.90
8717;DHT22;4395;48.554;8.820;2022-12-20T03:04:22;4.40;99.90
8717;DHT22;4395;48.554;8.820;2022-12-20T03:06:26;4.40;99.90
8717;DHT22;4395;48.554;8.820;2022-12-20T03:08:31;4.40;99.90
8717;DHT22;4395;48.554;8.820;2022-12-20T03:10:35;4.40;99.90
8717;DHT22;4395;48.554;8.820;2022-12-20T03:12:38;4.40;99.90
8717;DHT22;4395;48.554;8.820;2022-12-20T03:14:41;4.40;99.90
8717;DHT22;4395;48.554;8.820;2022-12-20T03:16:48;4.40;99.90
8717;DHT22;4395;48.554;8.820;2022-12-20T03:18:51;4.40;99.90
8717;DHT22;4395;48.554;8.820;2022-12-20T03:20:56;4.40;99.90
8717;DHT22;4395;48.554;8.820;2022-12-20T03:22:59;4.30;99.90
8717;DHT22;4395;48.554;8.820;2022-12-20T03:25:03;4.30;99.90
8717;DHT22;4395;48.554;8.820;2022-12-20T03:27:07;4.30;99.90
8717;DHT22;4395;48.554;8.820;2022-12-20T03:29:11;4.30;99.90
8717;DHT22;4395;48.554;8.820;2022-12-20T03:31:14;4.30;99.90
8717;DHT22;4395;48.554;8.820;2022-12-20T03:33:24;4.30;99.90
8717;DHT22;4395;48.554;8.820;2022-12-20T03:35:28;4.30;99.90
8717;DHT22;4395;48.554;8.820;2022-12-20T03:37:33;4.30;99.90
8717;DHT22;4395;48.554;8.820;2022-12-20T03:39:38;4.30;99.90
8717;DHT22;4395;48.554;8.820;2022-12-20T03:41:42;4.40;99.90
8717;DHT22;4395;48.554;8.820;2022-12-20T03:43:50;4.50;99.90
8717;DHT22;4395;48.554;8.820;2022-12-20T03:45:55;4.50;99.90
8717;DHT22;4395;48.554;8.820;2022-12-20T03:48:00;4.50;99.90
8717;DHT22;4395;48.554;8.820;2022-12-20T03:50:06;4.50;99.90
8717;DHT22;4395;48.554;8.820;2022-12-20T03:52:11;4.60;99.90
8717;DHT22;4395;48.554;8.820;2022-12-20T03:54:18;4.60;99.90
8717;DHT22;4395;48.554;8.820;2022-12-20T03:56:37;4.60;99.90
8717;DHT22;4395;48.554;8.820;2022-12-20T03:58:40;4.60;99.90
8717;DHT22;4395;48.554;8.820;2022-12-20T04:00:44;4.60;99.90
8717;DHT22;4395;48.554;8.820;2022-12-20T04:03:12;4.60;99.90
8717;DHT22;4395;48.554;8.820;2022-12-20T04:05:15;4.70;99.90
8717;DHT22;4395;48.554;8.820;2022-12-20T04:07:19;4.60;99.90
8717;DHT22;4395;48.554;8.820;2022-12-20T04:09:25;4.70;99.90
8717;DHT22;4395;48.554;8.820;2022-12-20T04:11:36;4.70;99.90
8717;DHT22;4395;48.554;8.820;2022-12-20T04:13:45;4.70;99.90
8717;DHT22;4395;48.554;8.820;2022-12-20T04:15:49;4.70;99.90
8717;DHT22;4395;48.554;8.820;2022-12-20T04:18:03;4.80;99.90
8717;DHT22;4395;48.554;8.820;2022-12-20T04:20:07;4.90;99.90
8717;DHT22;4395;48.554;8.820;2022-12-20T04:22:34;4.90;99.90
8717;DHT22;4395;48.554;8.820;2022-12-20T04:24:41;5.00;99.90
8717;DHT22;4395;48.554;8.820;2022-12-20T04:26:53;5.00;99.90
8717;DHT22;4395;48.554;8.820;2022-12-20T04:28:56;5.00;99.90
8717;DHT22;4395;48.554;8.820;2022-12-20T04:31:00;5.00;99.90
8717;DHT22;4395;48.554;8.820;2022-12-20T04:33:08;5.10;99.90
8717;DHT22;4395;48.554;8.820;2022-12-20T04:35:12;5.20;99.90
8717;DHT22;4395;48.554;8.820;2022-12-20T04:37:16;5.10;99.90
8717;DHT22;4395;48.554;8.820;2022-12-20T04:39:25;5.10;99.90
8717;DHT22;4395;48.554;8.820;2022-12-20T04:41:48;5.20;99.90
8717;DHT22;4395;48.554;8.820;2022-12-20T04:43:53;5.20;99.90
8717;DHT22;4395;48.554;8.820;2022-12-20T04:46:02;5.30;99.90
8717;DHT22;4395;48.554;8.820;2022-12-20T04:48:05;5.20;99.90
8717;DHT22;4395;48.554;8.820;2022-12-20T04:50:29;5.30;99.90
8717;DHT22;4395;48.554;8.820;2022-12-20T04:52:33;5.30;99.90
8717;DHT22;4395;48.554;8.820;2022-12-20T04:54:54;5.30;99.90
8717;DHT22;4395;48.554;8.820;2022-12-20T04:57:03;5.30;99.90
8717;DHT22;4395;48.554;8.820;2022-12-20T04:59:06;5.30;99.90
8717;DHT22;4395;48.554;8.820;2022-12-20T05:01:10;5.30;99.90
8717;DHT22;4395;48.554;8.820;2022-12-20T05:03:22;5.30;99.90
8717;DHT22;4395;48.554;8.820;2022-12-20T05:05:27;5.30;99.90
8717;DHT22;4395;48.554;8.820;2022-12-20T05:07:31;5.30;99.90
8717;DHT22;4395;48.554;8.820;2022-12-20T05:09:35;5.30;99.90
8717;DHT22;4395;48.554;8.820;2022-12-20T05:11:39;5.30;99.90
8717;DHT22;4395;48.554;8.820;2022-12-20T05:13:44;5.40;99.90
8717;DHT22;4395;48.554;8.820;2022-12-20T05:15:51;5.40;99.90
8717;DHT22;4395;48.554;8.820;2022-12-20T05:18:03;5.40;99.90
8717;DHT22;4395;48.554;8.820;2022-12-20T05:20:18;5.40;99.90
8717;DHT22;4395;48.554;8.820;2022-12-20T05:22:22;5.50;99.90
8717;DHT22;4395;48.554;8.820;2022-12-20T05:24:54;5.50;99.90
8717;DHT22;4395;48.554;8.820;2022-12-20T05:27:16;5.50;99.90
8717;DHT22;4395;48.554;8.820;2022-12-20T05:29:21;5.60;99.90
8717;DHT22;4395;48.554;8.820;2022-12-20T05:31:24;5.70;99.90
8717;DHT22;4395;48.554;8.820;2022-12-20T05:33:28;5.70;99.90
8717;DHT22;4395;48.554;8.820;2022-12-20T05:35:36;5.70;99.90
8717;DHT22;4395;48.554;8.820;2022-12-20T05:37:44;5.80;99.90
8717;DHT22;4395;48.554;8.820;2022-12-20T05:39:52;5.90;99.90
8717;DHT22;4395;48.554;8.820;2022-12-20T05:41:57;5.90;99.90
8717;DHT22;4395;48.554;8.820;2022-12-20T05:44:01;5.90;99.90
8717;DHT22;4395;48.554;8.820;2022-12-20T05:46:11;5.90;99.90
8717;DHT22;4395;48.554;8.820;2022-12-20T05:48:26;5.90;99.90
8717;DHT22;4395;48.554;8.820;2022-12-20T05:50:30;5.90;99.90
8717;DHT22;4395;48.554;8.820;2022-12-20T05:52:57;5.90;99.90
8717;DHT22;4395;48.554;8.820;2022-12-20T05:55:00;5.80;99.90
8717;DHT22;4395;48.554;8.820;2022-12-20T05:57:03;5.80;99.90
8717;DHT22;4395;48.554;8.820;2022-12-20T05:59:11;5.80;99.90
8717;DHT22;4395;48.554;8.820;2022-12-20T06:01:16;5.80;99.90
8717;DHT22;4395;48.554;8.820;2022-12-20T06:03:19;5.90;99.90
8717;DHT22;4395;48.554;8.820;2022-12-20T06:05:24;5.90;99.90
8717;DHT22;4395;48.554;8.820;2022-12-20T06:07:28;5.90;99.90
8717;DHT22;4395;48.554;8.820;2022-12-20T06:09:33;5.90;99.90
8717;DHT22;4395;48.554;8.820;2022-12-20T06:11:44;5.80;99.90
8717;DHT22;4395;48.554;8.820;2022-12-20T06:13:49;5.80;99.90
8717;DHT22;4395;48.554;8.820;2022-12-20T06:15:52;5.80;99.90
8717;DHT22;4395;48.554;8.820;2022-12-20T06:17:58;5.90;99.90
8717;DHT22;4395;48.554;8.820;2022-12-20T06:20:01;5.80;99.90
8717;DHT22;4395;48.554;8.820;2022-12-20T06:22:05;5.90;99.90
8717;DHT22;4395;48.554;8.820;2022-12-20T06:24:15;5.90;99.90
8717;DHT22;4395;48.554;8.820;2022-12-20T06:26:20;5.90;99.90
8717;DHT22;4395;48.554;8.820;2022-12-20T06:28:24;5.80;99.90
8717;DHT22;4395;48.554;8.820;2022-12-20T06:30:28;5.90;99.90
8717;DHT22;4395;48.554;8.820;2022-12-20T06:32:52;5.90;99.90
8717;DHT22;4395;48.554;8.820;2022-12-20T06:34:56;6.00;99.90
8717;DHT22;4395;48.554;8.820;2022-12-20T06:36:59;5.90;99.90
8717;DHT22;4395;48.554;8.820;2022-12-20T06:39:06;5.90;99.90
8717;DHT22;4395;48.554;8.820;2022-12-20T06:41:18;5.90;99.90
8717;DHT22;4395;48.554;8.820;2022-12-20T06:43:22;5.90;99.90
8717;DHT22;4395;48.554;8.820;2022-12-20T06:45:25;5.90;99.90
8717;DHT22;4395;48.554;8.820;2022-12-20T06:47:28;5.90;99.90
8717;DHT22;4395;48.554;8.820;2022-12-20T06:49:32;6.00;99.90
8717;DHT22;4395;48.554;8.820;2022-12-20T06:51:43;5.90;99.90
8717;DHT22;4395;48.554;8.820;2022-12-20T06:53:46;5.90;99.90
8717;DHT22;4395;48.554;8.820;2022-12-20T06:55:50;6.00;99.90
8717;DHT22;4395;48.554;8.820;2022-12-20T06:57:54;6.00;99.90
8717;DHT22;4395;48.554;8.820;2022-12-20T06:59:59;6.00;99.90
8717;DHT22;4395;48.554;8.820;2022-12-20T07:02:02;6.10;99.90
8717;DHT22;4395;48.554;8.820;2022-12-20T07:04:08;6.10;99.90
8717;DHT22;4395;48.554;8.820;2022-12-20T07:06:11;6.10;99.90
8717;DHT22;4395;48.554;8.820;2022-12-20T07:08:15;6.20;99.90
8717;DHT22;4395;48.554;8.820;2022-12-20T07:10:18;6.20;99.90
8717;DHT22;4395;48.554;8.820;2022-12-20T07:12:22;6.30;99.90
8717;DHT22;4395;48.554;8.820;2022-12-20T07:14:25;6.30;99.90
8717;DHT22;4395;48.554;8.820;2022-12-20T07:16:28;6.20;99.90
8717;DHT22;4395;48.554;8.820;2022-12-20T07:18:33;6.30;99.90
8717;DHT22;4395;48.554;8.820;2022-12-20T07:20:37;6.30;99.90
8717;DHT22;4395;48.554;8.820;2022-12-20T07:22:41;6.30;99.90
8717;DHT22;4395;48.554;8.820;2022-12-20T07:24:46;6.30;99.90
8717;DHT22;4395;48.554;8.820;2022-12-20T07:26:49;6.30;99.90
8717;DHT22;4395;48.554;8.820;2022-12-20T07:28:52;6.30;99.90
8717;DHT22;4395;48.554;8.820;2022-12-20T07:30:59;6.20;99.90
8717;DHT22;4395;48.554;8.820;2022-12-20T07:33:03;6.20;99.90
8717;DHT22;4395;48.554;8.820;2022-12-20T07:35:08;6.20;99.90
8717;DHT22;4395;48.554;8.820;2022-12-20T07:37:12;6.30;99.90
8717;DHT22;4395;48.554;8.820;2022-12-20T07:39:15;6.20;99.90
8717;DHT22;4395;48.554;8.820;2022-12-20T07:41:20;6.20;99.90
8717;DHT22;4395;48.554;8.820;2022-12-20T07:43:24;6.30;99.90
8717;DHT22;4395;48.554;8.820;2022-12-20T07:45:28;6.20;99.90
8717;DHT22;4395;48.554;8.820;2022-12-20T07:47:32;6.20;99.90
8717;DHT22;4395;48.554;8.820;2022-12-20T07:49:36;6.20;99.90
8717;DHT22;4395;48.554;8.820;2022-12-20T07:51:41;6.20;99.90
8717;DHT22;4395;48.554;8.820;2022-12-20T07:53:50;6.20;99.90
8717;DHT22;4395;48.554;8.820;2022-12-20T07:55:56;6.30;99.90
8717;DHT22;4395;48.554;8.820;2022-12-20T07:58:04;6.30;99.90
8717;DHT22;4395;48.554;8.820;2022-12-20T08:00:09;6.30;99.90
8717;DHT22;4395;48.554;8.820;2022-12-20T08:02:17;6.30;99.90
8717;DHT22;4395;48.554;8.820;2022-12-20T08:04:24;6.30;99.90
8717;DHT22;4395;48.554;8.820;2022-12-20T08:06:29;6.20;99.90
8717;DHT22;4395;48.554;8.820;2022-12-20T08:08:33;6.20;99.90
8717;DHT22;4395;48.554;8.820;2022-12-20T08:10:37;6.20;99.90
8717;DHT22;4395;48.554;8.820;2022-12-20T08:12:42;6.20;99.90
8717;DHT22;4395;48.554;8.820;2022-12-20T08:14:48;6.20;99.90
8717;DHT22;4395;48.554;8.820;2022-12-20T08:16:53;6.20;99.90
8717;DHT22;4395;48.554;8.820;2022-12-20T08:18:56;6.10;99.90
8717;DHT22;4395;48.554;8.820;2022-12-20T08:20:59;6.20;99.90
8717;DHT22;4395;48.554;8.820;2022-12-20T08:23:02;6.20;99.90
8717;DHT22;4395;48.554;8.820;2022-12-20T08:25:07;6.20;99.90
8717;DHT22;4395;48.554;8.820;2022-12-20T08:27:12;6.20;99.90
8717;DHT22;4395;48.554;8.820;2022-12-20T08:29:15;6.20;99.90
8717;DHT22;4395;48.554;8.820;2022-12-20T08:31:20;6.20;99.90
8717;DHT22;4395;48.554;8.820;2022-12-20T08:33:25;6.20;99.90
8717;DHT22;4395;48.554;8.820;2022-12-20T08:35:29;6.30;99.90
8717;DHT22;4395;48.554;8.820;2022-12-20T08:37:32;6.30;99.90
8717;DHT22;4395;48.554;8.820;2022-12-20T08:39:35;6.30;99.90
8717;DHT22;4395;48.554;8.820;2022-12-20T08:41:39;6.40;99.90
8717;DHT22;4395;48.554;8.820;2022-12-20T08:43:42;6.30;99.90
8717;DHT22;4395;48.554;8.820;2022-12-20T08:45:51;6.30;99.90
8717;DHT22;4395;48.554;8.820;2022-12-20T08:47:56;6.30;99.90
8717;DHT22;4395;48.554;8.820;2022-12-20T08:49:59;6.40;99.90
8717;DHT22;4395;48.554;8.820;2022-12-20T08:52:02;6.40;99.90
8717;DHT22;4395;48.554;8.820;2022-12-20T08:54:05;6.40;99.90
8717;DHT22;4395;48.554;8.820;2022-12-20T08:56:10;6.40;99.90
8717;DHT22;4395;48.554;8.820;2022-12-20T08:58:15;6.40;99.90
8717;DHT22;4395;48.554;8.820;2022-12-20T09:00:19;6.40;99.90
8717;DHT22;4395;48.554;8.820;2022-12-20T09:02:22;6.40;99.90
8717;DHT22;4395;48.554;8.820;2022-12-20T09:04:27;6.40;99.90
8717;DHT22;4395;48.554;8.820;2022-12-20T09:06:30;6.40;99.90
8717;DHT22;4395;48.554;8.820;2022-12-20T09:08:35;6.60;99.90
8717;DHT22;4395;48.554;8.820;2022-12-20T09:10:39;6.50;99.90
8717;DHT22;4395;48.554;8.820;2022-12-20T09:12:42;6.50;99.90
8717;DHT22;4395;48.554;8.820;2022-12-20T09:14:45;6.60;99.90
8717;DHT22;4395;48.554;8.820;2022-12-20T09:16:49;6.60;99.90
8717;DHT22;4395;48.554;8.820;2022-12-20T09:18:53;6.60;99.90
8717;DHT22;4395;48.554;8.820;2022-12-20T09:21:08;6.70;99.90
8717;DHT22;4395;48.554;8.820;2022-12-20T09:23:12;6.70;99.90
8717;DHT22;4395;48.554;8.820;2022-12-20T09:25:15;6.80;99.90
8717;DHT22;4395;48.554;8.820;2022-12-20T09:27:18;6.80;99.90
8717;DHT22;4395;48.554;8.820;2022-12-20T09:29:21;6.80;99.90
8717;DHT22;4395;48.554;8.820;2022-12-20T09:31:32;6.90;99.90
8717;DHT22;4395;48.554;8.820;2022-12-20T09:33:36;7.00;99.90
8717;DHT22;4395;48.554;8.820;2022-12-20T09:35:43;7.10;99.90
8717;DHT22;4395;48.554;8.820;2022-12-20T09:37:48;7.10;99.90
8717;DHT22;4395;48.554;8.820;2022-12-20T09:39:52;7.10;99.90
8717;DHT22;4395;48.554;8.820;2022-12-20T09:41:56;7.20;99.90
8717;DHT22;4395;48.554;8.820;2022-12-20T09:44:03;7.20;99.90
8717;DHT22;4395;48.554;8.820;2022-12-20T09:46:11;7.20;99.90
8717;DHT22;4395;48.554;8.820;2022-12-20T09:48:18;7.20;99.90
8717;DHT22;4395;48.554;8.820;2022-12-20T09:50:38;7.20;99.90
8717;DHT22;4395;48.554;8.820;2022-12-20T09:52:58;7.20;99.90
8717;DHT22;4395;48.554;8.820;2022-12-20T09:55:20;7.20;99.90
8717;DHT22;4395;48.554;8.820;2022-12-20T09:57:33;7.20;99.90
8717;DHT22;4395;48.554;8.820;2022-12-20T09:59:45;7.20;99.90
8717;DHT22;4395;48.554;8.820;2022-12-20T10:01:51;7.10;99.90
8717;DHT22;4395;48.554;8.820;2022-12-20T10:03:56;7.10;99.90
8717;DHT22;4395;48.554;8.820;2022-12-20T10:06:09;7.10;99.90
8717;DHT22;4395;48.554;8.820;2022-12-20T10:08:29;7.10;99.90
8717;DHT22;4395;48.554;8.820;2022-12-20T10:10:53;7.10;99.90
8717;DHT22;4395;48.554;8.820;2022-12-20T10:13:04;7.10;99.90
8717;DHT22;4395;48.554;8.820;2022-12-20T10:15:18;7.00;99.90
8717;DHT22;4395;48.554;8.820;2022-12-20T10:17:29;7.00;99.90
8717;DHT22;4395;48.554;8.820;2022-12-20T10:19:59;7.00;99.90
8717;DHT22;4395;48.554;8.820;2022-12-20T10:22:12;7.10;99.90
8717;DHT22;4395;48.554;8.820;2022-12-20T10:24:22;7.10;99.90
8717;DHT22;4395;48.554;8.820;2022-12-20T10:26:28;7.10;99.90
8717;DHT22;4395;48.554;8.820;2022-12-20T10:28:34;7.10;99.90
8717;DHT22;4395;48.554;8.820;2022-12-20T10:30:37;7.20;99.90
8717;DHT22;4395;48.554;8.820;2022-12-20T10:32:44;7.20;99.90
8717;DHT22;4395;48.554;8.820;2022-12-20T10:34:55;7.30;99.90
8717;DHT22;4395;48.554;8.820;2022-12-20T10:37:17;7.30;99.90
8717;DHT22;4395;48.554;8.820;2022-12-20T10:39:39;7.30;99.90
8717;DHT22;4395;48.554;8.820;2022-12-20T10:41:48;7.30;99.90
8717;DHT22;4395;48.554;8.820;2022-12-20T10:44:00;7.30;99.90
8717;DHT22;4395;48.554;8.820;2022-12-20T10:46:05;7.40;99.90
8717;DHT22;4395;48.554;8.820;2022-12-20T10:48:25;7.40;99.90
8717;DHT22;4395;48.554;8.820;2022-12-20T10:50:31;7.30;99.90
8717;DHT22;4395;48.554;8.820;2022-12-20T10:52:35;7.50;99.90
8717;DHT22;4395;48.554;8.820;2022-12-20T10:54:41;7.50;99.90
8717;DHT22;4395;48.554;8.820;2022-12-20T10:56:53;7.50;99.90
8717;DHT22;4395;48.554;8.820;2022-12-20T10:58:59;7.40;99.90
8717;DHT22;4395;48.554;8.820;2022-12-20T11:01:09;7.60;99.90
8717;DHT22;4395;48.554;8.820;2022-12-20T11:03:17;7.40;99.90
8717;DHT22;4395;48.554;8.820;2022-12-20T11:05:23;7.50;99.90
8717;DHT22;4395;48.554;8.820;2022-12-20T11:07:30;7.50;99.90
8717;DHT22;4395;48.554;8.820;2022-12-20T11:09:36;7.50;99.90
8717;DHT22;4395;48.554;8.820;2022-12-20T11:11:59;7.50;99.90
8717;DHT22;4395;48.554;8.820;2022-12-20T11:14:13;7.60;99.90
8717;DHT22;4395;48.554;8.820;2022-12-20T11:16:25;7.60;99.90
8717;DHT22;4395;48.554;8.820;2022-12-20T11:18:42;7.60;99.90
8717;DHT22;4395;48.554;8.820;2022-12-20T11:20:55;7.60;99.90
8717;DHT22;4395;48.554;8.820;2022-12-20T11:23:10;7.60;99.90
8717;DHT22;4395;48.554;8.820;2022-12-20T11:25:35;7.60;99.90
8717;DHT22;4395;48.554;8.820;2022-12-20T11:27:55;7.60;99.90
8717;DHT22;4395;48.554;8.820;2022-12-20T11:30:16;7.70;99.90
8717;DHT22;4395;48.554;8.820;2022-12-20T11:32:30;7.70;99.90
8717;DHT22;4395;48.554;8.820;2022-12-20T11:34:57;7.70;99.90
8717;DHT22;4395;48.554;8.820;2022-12-20T11:37:17;7.70;99.90
8717;DHT22;4395;48.554;8.820;2022-12-20T11:39:29;7.70;99.90
8717;DHT22;4395;48.554;8.820;2022-12-20T11:41:37;7.70;99.90
8717;DHT22;4395;48.554;8.820;2022-12-20T11:44:08;7.60;99.90
8717;DHT22;4395;48.554;8.820;2022-12-20T11:46:38;7.60;99.90
8717;DHT22;4395;48.554;8.820;2022-12-20T11:49:02;7.60;99.90
8717;DHT22;4395;48.554;8.820;2022-12-20T11:51:19;7.60;99.90
8717;DHT22;4395;48.554;8.820;2022-12-20T11:53:31;7.70;99.90
8717;DHT22;4395;48.554;8.820;2022-12-20T11:55:40;7.70;99.90
8717;DHT22;4395;48.554;8.820;2022-12-20T11:57:55;7.70;99.90
8717;DHT22;4395;48.554;8.820;2022-12-20T12:00:22;7.60;99.90
8717;DHT22;4395;48.554;8.820;2022-12-20T12:02:30;7.60;99.90
8717;DHT22;4395;48.554;8.820;2022-12-20T12:04:40;7.60;99.90
8717;DHT22;4395;48.554;8.820;2022-12-20T12:06:48;7.60;99.90
8717;DHT22;4395;48.554;8.820;2022-12-20T12:09:03;7.70;99.90
8717;DHT22;4395;48.554;8.820;2022-12-20T12:11:14;7.70;99.90
8717;DHT22;4395;48.554;8.820;2022-12-20T12:13:41;7.70;99.90
8717;DHT22;4395;48.554;8.820;2022-12-20T12:15:50;7.70;99.90
8717;DHT22;4395;48.554;8.820;2022-12-20T12:17:59;7.70;99.90
8717;DHT22;4395;48.554;8.820;2022-12-20T12:20:19;7.80;99.90
8717;DHT22;4395;48.554;8.820;2022-12-20T12:22:30;7.80;99.90
8717;DHT22;4395;48.554;8.820;2022-12-20T12:24:39;7.80;99.90
8717;DHT22;4395;48.554;8.820;2022-12-20T12:26:45;7.80;99.90
8717;DHT22;4395;48.554;8.820;2022-12-20T12:28:53;7.80;99.90
8717;DHT22;4395;48.554;8.820;2022-12-20T12:31:03;7.70;99.90
8717;DHT22;4395;48.554;8.820;2022-12-20T12:33:13;7.70;99.90
8717;DHT22;4395;48.554;8.820;2022-12-20T12:35:43;7.70;99.90
8717;DHT22;4395;48.554;8.820;2022-12-20T12:38:03;7.70;99.90
8717;DHT22;4395;48.554;8.820;2022-12-20T12:43:25;7.70;99.90
8717;DHT22;4395;48.554;8.820;2022-12-20T12:45:59;7.80;99.90
8717;DHT22;4395;48.554;8.820;2022-12-20T12:48:05;7.80;99.90
8717;DHT22;4395;48.554;8.820;2022-12-20T12:50:20;7.80;99.90
8717;DHT22;4395;48.554;8.820;2022-12-20T12:52:39;7.90;99.90
8717;DHT22;4395;48.554;8.820;2022-12-20T12:54:46;7.90;99.90
8717;DHT22;4395;48.554;8.820;2022-12-20T12:56:50;7.90;99.90
8717;DHT22;4395;48.554;8.820;2022-12-20T12:59:19;7.90;99.90
8717;DHT22;4395;48.554;8.820;2022-12-20T13:01:47;7.90;99.90
8717;DHT22;4395;48.554;8.820;2022-12-20T13:04:22;7.90;99.90
8717;DHT22;4395;48.554;8.820;2022-12-20T13:06:52;7.90;99.90
8717;DHT22;4395;48.554;8.820;2022-12-20T13:09:17;7.90;99.90
8717;DHT22;4395;48.554;8.820;2022-12-20T13:11:29;7.90;99.90
8717;DHT22;4395;48.554;8.820;2022-12-20T13:13:33;7.90;99.90
8717;DHT22;4395;48.554;8.820;2022-12-20T13:15:50;7.90;99.90
8717;DHT22;4395;48.554;8.820;2022-12-20T13:17:56;7.90;99.90
8717;DHT22;4395;48.554;8.820;2022-12-20T13:20:00;8.00;99.90
8717;DHT22;4395;48.554;8.820;2022-12-20T13:22:19;7.90;99.90
8717;DHT22;4395;48.554;8.820;2022-12-20T13:24:35;7.80;99.90
8717;DHT22;4395;48.554;8.820;2022-12-20T13:26:47;7.80;99.90
8717;DHT22;4395;48.554;8.820;2022-12-20T13:28:52;7.90;99.90
8717;DHT22;4395;48.554;8.820;2022-12-20T13:31:29;7.90;99.90
8717;DHT22;4395;48.554;8.820;2022-12-20T13:33:40;7.90;99.90
8717;DHT22;4395;48.554;8.820;2022-12-20T13:41:10;7.80;99.90
8717;DHT22;4395;48.554;8.820;2022-12-20T13:43:25;7.80;99.90
8717;DHT22;4395;48.554;8.820;2022-12-20T13:45:30;7.90;99.90
8717;DHT22;4395;48.554;8.820;2022-12-20T13:47:38;7.90;99.90
8717;DHT22;4395;48.554;8.820;2022-12-20T13:49:45;8.00;99.90
8717;DHT22;4395;48.554;8.820;2022-12-20T13:51:48;8.60;99.90
8717;DHT22;4395;48.554;8.820;2022-12-20T13:54:15;9.20;99.90
8717;DHT22;4395;48.554;8.820;2022-12-20T13:56:40;9.50;99.90
8717;DHT22;4395;48.554;8.820;2022-12-20T13:58:46;10.00;99.90
8717;DHT22;4395;48.554;8.820;2022-12-20T14:00:50;10.50;99.90
8717;DHT22;4395;48.554;8.820;2022-12-20T14:02:55;10.90;99.90
8717;DHT22;4395;48.554;8.820;2022-12-20T14:05:02;11.30;99.90
8717;DHT22;4395;48.554;8.820;2022-12-20T14:07:12;11.30;99.90
8717;DHT22;4395;48.554;8.820;2022-12-20T14:09:29;11.40;99.90
8717;DHT22;4395;48.554;8.820;2022-12-20T14:11:45;11.40;99.90
8717;DHT22;4395;48.554;8.820;2022-12-20T14:13:54;11.20;99.90
8717;DHT22;4395;48.554;8.820;2022-12-20T14:16:06;10.60;99.90
8717;DHT22;4395;48.554;8.820;2022-12-20T14:18:16;10.10;99.90
8717;DHT22;4395;48.554;8.820;2022-12-20T14:20:25;9.80;99.90
8717;DHT22;4395;48.554;8.820;2022-12-20T14:22:31;9.40;99.90